Time;durP1;ratioP1;P1;durP2;ratioP2;P2;SDS_P1;SDS_P2;PMS_P1;PMS_P2;Temp;Humidity;BMP_temperature;BMP_pressure;BME280_temperature;BME280_humidity;BME280_pressure;Samples;Min_cycle;Max_cycle;Signal;HPM_P1;HPM_P2
2023/01/18 00:01:06;;;;;;;;;;;-1.10;99.90;;;;;;5043475;28;19924;-62
2023/01/18 00:03:34;;;;;;;;;;;-1.10;99.90;;;;;;5047987;28;19924;-62
2023/01/18 00:06:00;;;;;;;;;;;-1.00;99.90;;;;;;5040382;28;19914;-61
2023/01/18 00:08:27;;;;;;;;;;;-1.00;99.90;;;;;;5046560;28;19919;-61
2023/01/18 00:10:52;;;;;;;;;;;-1.00;99.90;;;;;;5037156;28;20371;-61
2023/01/18 00:13:18;;;;;;;;;;;-1.00;99.90;;;;;;5046122;28;20007;-62
2023/01/18 00:15:43;;;;;;;;;;;-1.10;99.90;;;;;;5044445;28;19967;-60
2023/01/18 00:18:09;;;;;;;;;;;-1.20;99.90;;;;;;5042617;28;19966;-61
2023/01/18 00:20:34;;;;;;;;;;;-1.10;99.90;;;;;;5043177;28;20341;-64
2023/01/18 00:23:03;;;;;;;;;;;-1.00;99.90;;;;;;5046629;28;20368;-63
2023/01/18 00:25:29;;;;;;;;;;;-1.00;99.90;;;;;;5043808;28;20349;-61
2023/01/18 00:27:55;;;;;;;;;;;-1.00;99.90;;;;;;5045188;28;19925;-63
2023/01/18 00:30:22;;;;;;;;;;;-1.10;99.90;;;;;;5040228;28;19958;-62
2023/01/18 00:32:48;;;;;;;;;;;-1.30;99.90;;;;;;5045791;28;19909;-61
2023/01/18 00:35:14;;;;;;;;;;;-1.30;99.90;;;;;;5036687;28;19914;-59
2023/01/18 00:37:39;;;;;;;;;;;-1.20;99.90;;;;;;5045566;28;19913;-60
2023/01/18 00:40:05;;;;;;;;;;;-1.20;99.90;;;;;;5042826;28;19913;-63
2023/01/18 00:45:15;;;;;;;;;;;-1.10;99.90;;;;;;5041712;28;19963;-62
2023/01/18 00:47:40;;;;;;;;;;;-1.10;99.90;;;;;;5045180;28;20390;-60
2023/01/18 00:50:06;;;;;;;;;;;-1.00;99.90;;;;;;5045434;28;19913;-62
2023/01/18 00:52:33;;;;;;;;;;;-1.10;99.90;;;;;;5047795;28;19952;-63
2023/01/18 00:54:59;;;;;;;;;;;-1.10;99.90;;;;;;5042037;28;20416;-63
2023/01/18 00:57:25;;;;;;;;;;;-1.20;99.90;;;;;;5045247;28;20294;-62
2023/01/18 00:59:50;;;;;;;;;;;-1.30;99.90;;;;;;5045426;28;19912;-63
2023/01/18 01:02:16;;;;;;;;;;;-1.40;99.90;;;;;;5040758;28;20294;-62
2023/01/18 01:07:25;;;;;;;;;;;-1.50;99.90;;;;;;5039392;28;19924;-62
2023/01/18 01:09:50;;;;;;;;;;;-1.50;99.90;;;;;;5044122;28;19912;-62
2023/01/18 01:26:09;;;;;;;;;;;-1.30;99.90;;;;;;5038231;28;20386;-63
2023/01/18 01:28:39;;;;;;;;;;;-1.30;99.90;;;;;;5039525;28;20391;-63
2023/01/18 01:31:06;;;;;;;;;;;-1.30;99.90;;;;;;5043890;28;19917;-61
2023/01/18 01:33:32;;;;;;;;;;;-1.40;99.90;;;;;;5043632;28;19959;-63
2023/01/18 01:35:59;;;;;;;;;;;-1.40;99.90;;;;;;5038440;28;19913;-63
2023/01/18 01:38:24;;;;;;;;;;;-1.40;99.90;;;;;;5046208;28;19917;-62
2023/01/18 01:41:00;;;;;;;;;;;-1.40;99.90;;;;;;5047932;28;20044;-61
2023/01/18 01:43:44;;;;;;;;;;;-1.40;99.90;;;;;;5047054;28;19917;-62
2023/01/18 01:46:19;;;;;;;;;;;-1.30;99.90;;;;;;5044189;28;19925;-63
2023/01/18 01:48:46;;;;;;;;;;;-1.30;99.90;;;;;;5040972;28;20278;-64
2023/01/18 01:51:12;;;;;;;;;;;-1.30;99.90;;;;;;5056607;28;19912;-61
2023/01/18 01:53:37;;;;;;;;;;;-1.50;99.90;;;;;;5047650;28;19924;-61
2023/01/18 01:56:03;;;;;;;;;;;-1.50;99.90;;;;;;5046674;28;20279;-62
2023/01/18 01:58:30;;;;;;;;;;;-1.50;99.90;;;;;;5044887;28;19952;-62
2023/01/18 02:00:56;;;;;;;;;;;-1.60;99.90;;;;;;5045231;28;19968;-61
2023/01/18 02:03:23;;;;;;;;;;;-1.60;99.90;;;;;;5048607;28;20386;-60
2023/01/18 02:05:55;;;;;;;;;;;-1.60;99.90;;;;;;5043937;28;20003;-58
2023/01/18 02:08:23;;;;;;;;;;;-1.60;99.90;;;;;;5043129;28;19913;-61
2023/01/18 02:10:49;;;;;;;;;;;-1.60;99.90;;;;;;5048782;28;19960;-60
2023/01/18 02:13:15;;;;;;;;;;;-1.60;99.90;;;;;;5043499;28;20018;-62
2023/01/18 02:15:59;;;;;;;;;;;-1.60;99.90;;;;;;5040624;28;19920;-60
2023/01/18 02:18:45;;;;;;;;;;;-1.70;99.90;;;;;;5042895;28;19924;-61
2023/01/18 02:21:16;;;;;;;;;;;-1.60;99.90;;;;;;5042275;28;19920;-61
2023/01/18 02:23:58;;;;;;;;;;;-1.70;99.90;;;;;;5048935;28;19924;-61
2023/01/18 02:26:29;;;;;;;;;;;-1.70;99.90;;;;;;5046653;28;19916;-61
2023/01/18 02:28:59;;;;;;;;;;;-1.70;99.90;;;;;;5044724;28;19916;-63
2023/01/18 02:31:27;;;;;;;;;;;-1.70;99.90;;;;;;5045670;28;20015;-62
2023/01/18 02:34:09;;;;;;;;;;;-1.70;99.90;;;;;;5045209;28;20035;-62
2023/01/18 02:36:37;;;;;;;;;;;-1.70;99.90;;;;;;5046673;28;19974;-64
2023/01/18 02:39:05;;;;;;;;;;;-1.70;99.90;;;;;;5046868;28;19913;-62
2023/01/18 02:47:03;;;;;;;;;;;-1.60;99.90;;;;;;5077126;22;19931;-61
2023/01/18 02:49:31;;;;;;;;;;;-1.70;99.90;;;;;;5056318;28;19999;-61
2023/01/18 02:52:00;;;;;;;;;;;-1.70;99.90;;;;;;5056044;28;19919;-61
2023/01/18 02:54:25;;;;;;;;;;;-1.80;99.90;;;;;;5057580;28;19970;-61
2023/01/18 02:56:52;;;;;;;;;;;-1.90;99.90;;;;;;5062224;28;19925;-61
2023/01/18 02:59:24;;;;;;;;;;;-2.00;99.90;;;;;;5071324;28;20648;-61
2023/01/18 03:02:01;;;;;;;;;;;-2.00;99.90;;;;;;5066819;28;19959;-61
2023/01/18 03:04:30;;;;;;;;;;;-1.90;99.90;;;;;;5070092;28;19920;-61
2023/01/18 03:07:04;;;;;;;;;;;-1.90;99.90;;;;;;5071840;28;19931;-60
2023/01/18 03:09:29;;;;;;;;;;;-1.90;99.90;;;;;;5075375;28;19908;-61
2023/01/18 03:12:14;;;;;;;;;;;-1.90;99.90;;;;;;5074854;28;20567;-61
2023/01/18 03:14:42;;;;;;;;;;;-1.80;99.90;;;;;;5069903;28;19958;-61
2023/01/18 03:17:15;;;;;;;;;;;-1.70;99.90;;;;;;5066680;28;20271;-61
2023/01/18 03:25:17;;;;;;;;;;;-1.60;99.90;;;;;;5070488;28;20003;-61
2023/01/18 03:35:58;;;;;;;;;;;-1.70;99.90;;;;;;5065717;28;19919;-60
2023/01/18 03:38:24;;;;;;;;;;;-1.70;99.90;;;;;;5064243;28;19912;-60
2023/01/18 03:40:50;;;;;;;;;;;-1.60;99.90;;;;;;5070150;28;19951;-61
2023/01/18 03:43:16;;;;;;;;;;;-1.60;99.90;;;;;;5069725;28;19961;-59
2023/01/18 03:45:47;;;;;;;;;;;-1.50;99.90;;;;;;5067283;28;20263;-60
2023/01/18 03:48:13;;;;;;;;;;;-1.60;99.90;;;;;;5068805;28;19923;-61
2023/01/18 03:50:48;;;;;;;;;;;-1.80;99.90;;;;;;5069110;28;19913;-60
2023/01/18 03:53:16;;;;;;;;;;;-1.80;99.90;;;;;;5069197;28;19962;-59
2023/01/18 03:55:50;;;;;;;;;;;-1.80;99.90;;;;;;5078203;28;20286;-60
2023/01/18 03:58:18;;;;;;;;;;;-1.80;99.90;;;;;;5069090;28;20023;-60
2023/01/18 04:00:44;;;;;;;;;;;-1.80;99.90;;;;;;5070500;28;20409;-60
2023/01/18 04:03:09;;;;;;;;;;;-1.80;99.90;;;;;;5070278;28;19947;-61
2023/01/18 04:05:35;;;;;;;;;;;-1.90;99.90;;;;;;5066129;28;19917;-61
2023/01/18 04:08:00;;;;;;;;;;;-1.90;99.90;;;;;;5067831;28;19912;-61
2023/01/18 04:10:26;;;;;;;;;;;-1.90;99.90;;;;;;5072348;28;19913;-61
2023/01/18 04:12:51;;;;;;;;;;;-1.70;99.90;;;;;;5072515;28;19919;-60
2023/01/18 04:15:18;;;;;;;;;;;-1.80;99.90;;;;;;5068724;28;20378;-60
2023/01/18 04:17:43;;;;;;;;;;;-1.70;99.90;;;;;;5067869;28;19982;-61
2023/01/18 04:20:09;;;;;;;;;;;-1.70;99.90;;;;;;5070863;28;19917;-61
2023/01/18 04:22:35;;;;;;;;;;;-1.60;99.90;;;;;;5067900;28;19966;-60
2023/01/18 04:25:00;;;;;;;;;;;-1.60;99.90;;;;;;5066625;28;19986;-62
2023/01/18 04:27:26;;;;;;;;;;;-1.60;99.90;;;;;;5067999;28;19913;-60
2023/01/18 04:29:51;;;;;;;;;;;-1.50;99.90;;;;;;5071006;28;19927;-61
2023/01/18 04:32:17;;;;;;;;;;;-1.60;99.90;;;;;;5065926;28;19916;-61
2023/01/18 04:34:42;;;;;;;;;;;-1.60;99.90;;;;;;5067138;28;19980;-61
2023/01/18 04:37:08;;;;;;;;;;;-1.60;99.90;;;;;;5071309;28;19965;-61
2023/01/18 04:39:33;;;;;;;;;;;-1.70;99.90;;;;;;5069918;28;19913;-60
2023/01/18 04:41:59;;;;;;;;;;;-1.70;99.90;;;;;;5073591;28;20414;-61
2023/01/18 04:44:24;;;;;;;;;;;-1.70;99.90;;;;;;5064797;28;20372;-63
2023/01/18 04:46:50;;;;;;;;;;;-1.70;99.90;;;;;;5065282;28;19934;-61
2023/01/18 04:49:16;;;;;;;;;;;-1.70;99.90;;;;;;5065399;28;20045;-62
2023/01/18 04:51:42;;;;;;;;;;;-1.70;99.90;;;;;;5067611;28;19921;-61
2023/01/18 04:54:08;;;;;;;;;;;-1.80;99.90;;;;;;5062294;28;19913;-61
2023/01/18 04:56:34;;;;;;;;;;;-1.70;99.90;;;;;;5066395;28;19965;-61
2023/01/18 04:58:59;;;;;;;;;;;-1.80;99.90;;;;;;5067631;28;19920;-61
2023/01/18 05:01:25;;;;;;;;;;;-1.80;99.90;;;;;;5063859;28;19916;-61
2023/01/18 05:03:53;;;;;;;;;;;-1.80;99.90;;;;;;5068646;28;19984;-61
2023/01/18 05:06:19;;;;;;;;;;;-1.80;99.90;;;;;;5071997;28;19912;-62
2023/01/18 05:08:44;;;;;;;;;;;-1.90;99.90;;;;;;5063777;28;19917;-62
2023/01/18 05:11:11;;;;;;;;;;;-1.80;99.90;;;;;;5065589;28;20007;-60
2023/01/18 05:13:37;;;;;;;;;;;-1.80;99.90;;;;;;5068128;28;19925;-61
2023/01/18 05:16:03;;;;;;;;;;;-1.70;99.90;;;;;;5073721;28;20007;-60
2023/01/18 05:18:29;;;;;;;;;;;-1.60;99.90;;;;;;5070243;28;19921;-61
2023/01/18 05:20:54;;;;;;;;;;;-1.50;99.90;;;;;;5071757;28;19912;-61
2023/01/18 05:23:20;;;;;;;;;;;-1.40;99.90;;;;;;5070782;28;20298;-61
2023/01/18 05:25:50;;;;;;;;;;;-1.40;99.90;;;;;;5071178;28;19917;-61
2023/01/18 05:28:16;;;;;;;;;;;-1.50;99.90;;;;;;5074736;28;19912;-61
2023/01/18 05:30:41;;;;;;;;;;;-1.60;99.90;;;;;;5071585;28;19932;-61
2023/01/18 05:33:07;;;;;;;;;;;-1.60;99.90;;;;;;5070717;28;19913;-61
2023/01/18 05:35:33;;;;;;;;;;;-1.80;99.90;;;;;;5071431;28;20323;-61
2023/01/18 05:37:58;;;;;;;;;;;-1.80;99.90;;;;;;5071923;28;19919;-60
2023/01/18 05:40:24;;;;;;;;;;;-1.80;99.90;;;;;;5073193;28;20375;-61
2023/01/18 05:42:49;;;;;;;;;;;-1.80;99.90;;;;;;5070057;28;19978;-61
2023/01/18 05:45:15;;;;;;;;;;;-1.80;99.90;;;;;;5076726;28;19924;-60
2023/01/18 05:47:40;;;;;;;;;;;-2.00;99.90;;;;;;5073303;28;19916;-61
2023/01/18 05:50:06;;;;;;;;;;;-2.00;99.90;;;;;;5076929;28;19947;-60
2023/01/18 05:52:32;;;;;;;;;;;-2.00;99.90;;;;;;5074852;28;19958;-61
2023/01/18 05:54:57;;;;;;;;;;;-2.10;99.90;;;;;;5070963;28;19963;-60
2023/01/18 05:57:23;;;;;;;;;;;-2.00;99.90;;;;;;5075787;28;19913;-62
2023/01/18 05:59:48;;;;;;;;;;;-1.90;99.90;;;;;;5066770;28;19917;-61
2023/01/18 06:02:14;;;;;;;;;;;-1.90;99.90;;;;;;5063453;28;19920;-60
2023/01/18 06:04:39;;;;;;;;;;;-1.90;99.90;;;;;;5066914;28;20015;-60
2023/01/18 06:07:05;;;;;;;;;;;-2.00;99.90;;;;;;5070066;28;20000;-63
2023/01/18 06:09:30;;;;;;;;;;;-2.00;99.90;;;;;;5073248;28;19919;-61
2023/01/18 06:11:56;;;;;;;;;;;-2.00;99.90;;;;;;5064508;28;19912;-59
2023/01/18 06:14:21;;;;;;;;;;;-2.10;99.90;;;;;;5071697;28;19931;-59
2023/01/18 06:16:47;;;;;;;;;;;-2.20;99.90;;;;;;5069277;28;19912;-60
2023/01/18 06:19:12;;;;;;;;;;;-2.20;99.90;;;;;;5066246;28;19913;-60
2023/01/18 06:21:37;;;;;;;;;;;-2.20;99.90;;;;;;5073874;28;19991;-61
2023/01/18 06:24:03;;;;;;;;;;;-2.10;99.90;;;;;;5064847;28;19927;-59
2023/01/18 06:26:30;;;;;;;;;;;-2.00;99.90;;;;;;5062093;28;19921;-60
2023/01/18 06:28:56;;;;;;;;;;;-2.10;99.90;;;;;;5068166;28;20442;-61
2023/01/18 06:31:22;;;;;;;;;;;-2.10;99.90;;;;;;5067751;28;19913;-60
2023/01/18 06:33:47;;;;;;;;;;;-2.00;99.90;;;;;;5067539;28;20408;-60
2023/01/18 06:36:13;;;;;;;;;;;-2.10;99.90;;;;;;5075516;28;19912;-60
2023/01/18 06:38:38;;;;;;;;;;;-2.10;99.90;;;;;;5074238;28;20016;-61
2023/01/18 06:41:04;;;;;;;;;;;-2.10;99.90;;;;;;5076236;28;19974;-60
2023/01/18 06:43:29;;;;;;;;;;;-2.20;99.90;;;;;;5072964;28;19913;-60
2023/01/18 06:45:55;;;;;;;;;;;-2.30;99.90;;;;;;5077875;28;19920;-60
2023/01/18 06:48:22;;;;;;;;;;;-2.30;99.90;;;;;;5072340;28;20301;-60
2023/01/18 06:50:48;;;;;;;;;;;-2.30;99.90;;;;;;5067939;28;19981;-60
2023/01/18 06:53:14;;;;;;;;;;;-2.20;99.90;;;;;;5068018;28;20329;-59
2023/01/18 06:55:40;;;;;;;;;;;-2.20;99.90;;;;;;5077868;28;19951;-61
2023/01/18 06:58:05;;;;;;;;;;;-2.20;99.90;;;;;;5085332;28;19916;-59
2023/01/18 07:00:31;;;;;;;;;;;-2.20;99.90;;;;;;5076735;28;19912;-60
2023/01/18 07:02:57;;;;;;;;;;;-2.30;99.90;;;;;;5070636;28;19936;-59
2023/01/18 07:05:22;;;;;;;;;;;-2.30;99.90;;;;;;5074639;28;19977;-61
2023/01/18 07:07:48;;;;;;;;;;;-2.40;99.90;;;;;;5067304;28;20357;-62
2023/01/18 07:10:13;;;;;;;;;;;-2.40;99.90;;;;;;5078324;28;19918;-61
2023/01/18 07:12:39;;;;;;;;;;;-2.40;99.90;;;;;;5070905;28;19951;-62
2023/01/18 07:15:06;;;;;;;;;;;-2.30;99.90;;;;;;5080327;28;19928;-63
2023/01/18 07:17:31;;;;;;;;;;;-2.20;99.90;;;;;;5077604;28;19944;-62
2023/01/18 07:19:57;;;;;;;;;;;-2.30;99.90;;;;;;5085062;28;19955;-63
2023/01/18 07:22:22;;;;;;;;;;;-2.30;99.90;;;;;;5079291;28;20443;-63
2023/01/18 07:24:47;;;;;;;;;;;-2.30;99.90;;;;;;5072803;28;20351;-63
2023/01/18 07:27:13;;;;;;;;;;;-2.30;99.90;;;;;;5071668;28;19909;-63
2023/01/18 07:29:38;;;;;;;;;;;-2.30;99.90;;;;;;5073477;28;19916;-63
2023/01/18 07:32:04;;;;;;;;;;;-2.30;99.90;;;;;;5084622;28;19916;-63
2023/01/18 07:34:29;;;;;;;;;;;-2.30;99.90;;;;;;5072701;28;20003;-62
2023/01/18 07:36:55;;;;;;;;;;;-2.40;99.90;;;;;;5070143;28;19916;-63
2023/01/18 07:39:20;;;;;;;;;;;-2.40;99.90;;;;;;5069063;28;19908;-62
2023/01/18 07:41:46;;;;;;;;;;;-2.50;99.90;;;;;;5061360;28;20030;-62
2023/01/18 07:44:12;;;;;;;;;;;-2.50;99.90;;;;;;5069739;28;19917;-63
2023/01/18 07:46:38;;;;;;;;;;;-2.40;99.90;;;;;;5073151;28;20348;-63
2023/01/18 07:49:04;;;;;;;;;;;-2.40;99.90;;;;;;5074241;28;19912;-63
2023/01/18 07:51:33;;;;;;;;;;;-2.40;99.90;;;;;;5072462;28;19993;-63
2023/01/18 07:53:59;;;;;;;;;;;-2.30;99.90;;;;;;5067679;28;19913;-63
2023/01/18 07:56:25;;;;;;;;;;;-2.20;99.90;;;;;;5063218;28;19920;-63
2023/01/18 07:58:51;;;;;;;;;;;-2.20;99.90;;;;;;5073002;28;19939;-63
2023/01/18 08:01:18;;;;;;;;;;;-2.30;99.90;;;;;;5066526;28;19962;-63
2023/01/18 08:03:44;;;;;;;;;;;-2.30;99.90;;;;;;5074785;28;19925;-62
2023/01/18 08:06:12;;;;;;;;;;;-2.30;99.90;;;;;;5077676;28;20435;-62
2023/01/18 08:08:38;;;;;;;;;;;-2.20;99.90;;;;;;5073613;28;19909;-62
2023/01/18 08:11:04;;;;;;;;;;;-2.10;99.90;;;;;;5069976;28;19919;-62
2023/01/18 08:13:30;;;;;;;;;;;-2.10;99.90;;;;;;5076736;28;19916;-63
2023/01/18 08:15:57;;;;;;;;;;;-2.10;99.90;;;;;;5070590;28;19969;-62
2023/01/18 08:18:23;;;;;;;;;;;-2.10;99.90;;;;;;5073933;28;19951;-62
2023/01/18 08:20:49;;;;;;;;;;;-2.10;99.90;;;;;;5088413;28;19943;-62
2023/01/18 08:23:15;;;;;;;;;;;-2.20;99.90;;;;;;5068811;28;19913;-62
2023/01/18 08:25:41;;;;;;;;;;;-2.20;99.90;;;;;;5074624;28;19961;-63
2023/01/18 08:28:07;;;;;;;;;;;-2.20;99.90;;;;;;5078903;28;19908;-62
2023/01/18 08:30:34;;;;;;;;;;;-2.20;99.90;;;;;;5072542;28;19921;-63
2023/01/18 08:33:00;;;;;;;;;;;-2.20;99.90;;;;;;5067689;28;20289;-63
2023/01/18 08:35:27;;;;;;;;;;;-2.10;99.90;;;;;;5073679;28;19916;-62
2023/01/18 08:37:53;;;;;;;;;;;-2.00;99.90;;;;;;5071262;28;20514;-63
2023/01/18 08:40:19;;;;;;;;;;;-1.90;99.90;;;;;;5068885;28;20350;-62
2023/01/18 08:42:45;;;;;;;;;;;-1.80;99.90;;;;;;5070669;28;19913;-63
2023/01/18 08:45:11;;;;;;;;;;;-1.80;99.90;;;;;;5075643;28;19913;-63
2023/01/18 08:47:36;;;;;;;;;;;-1.70;99.90;;;;;;5084682;22;19931;-56
2023/01/18 08:50:02;;;;;;;;;;;-1.70;99.90;;;;;;5068900;28;20298;-56
2023/01/18 08:52:28;;;;;;;;;;;-1.60;99.90;;;;;;5070046;28;20004;-58
2023/01/18 08:54:54;;;;;;;;;;;-1.50;99.90;;;;;;5068342;28;19923;-58
2023/01/18 08:57:19;;;;;;;;;;;-1.50;99.90;;;;;;5083560;28;20289;-58
2023/01/18 08:59:45;;;;;;;;;;;-1.40;99.90;;;;;;5070528;28;20279;-58
2023/01/18 09:02:13;;;;;;;;;;;-1.30;99.90;;;;;;5081205;28;19919;-57
2023/01/18 09:04:38;;;;;;;;;;;-1.20;99.90;;;;;;5071625;28;20400;-58
2023/01/18 09:07:03;;;;;;;;;;;-1.20;99.90;;;;;;5081256;28;19913;-58
2023/01/18 09:09:29;;;;;;;;;;;-1.10;99.90;;;;;;5076500;28;19912;-58
2023/01/18 09:11:57;;;;;;;;;;;-1.00;99.90;;;;;;5077620;28;19912;-58
2023/01/18 09:14:22;;;;;;;;;;;-1.00;99.90;;;;;;5078457;28;20382;-58
2023/01/18 09:16:48;;;;;;;;;;;-0.90;99.90;;;;;;5086229;28;19915;-55
2023/01/18 09:19:14;;;;;;;;;;;-0.80;99.90;;;;;;5079401;28;19923;-58
2023/01/18 09:21:39;;;;;;;;;;;-0.80;99.90;;;;;;5078168;28;19916;-57
2023/01/18 09:24:06;;;;;;;;;;;-0.70;99.90;;;;;;5075896;28;19920;-58
2023/01/18 09:26:31;;;;;;;;;;;-0.70;99.90;;;;;;5075071;28;20576;-56
2023/01/18 09:28:56;;;;;;;;;;;-0.60;99.90;;;;;;5071252;28;19909;-57
2023/01/18 09:31:23;;;;;;;;;;;-0.60;99.90;;;;;;5071332;28;19916;-57
2023/01/18 09:33:49;;;;;;;;;;;-0.50;99.90;;;;;;5072081;28;20340;-57
2023/01/18 09:36:14;;;;;;;;;;;-0.40;99.90;;;;;;5077473;28;20232;-58
2023/01/18 09:38:40;;;;;;;;;;;-0.30;99.90;;;;;;5064794;28;19995;-57
2023/01/18 09:41:25;;;;;;;;;;;-0.30;99.90;;;;;;5063234;28;19917;-57
2023/01/18 09:43:53;;;;;;;;;;;-0.20;99.90;;;;;;5071448;28;20029;-57
2023/01/18 09:46:22;;;;;;;;;;;0.00;99.90;;;;;;5071526;28;20388;-57
2023/01/18 09:48:58;;;;;;;;;;;0.10;99.90;;;;;;5067256;28;20294;-58
2023/01/18 09:51:29;;;;;;;;;;;0.10;99.90;;;;;;5069633;28;19912;-57
2023/01/18 09:54:01;;;;;;;;;;;0.20;99.90;;;;;;5071019;28;19916;-57
2023/01/18 09:56:30;;;;;;;;;;;0.30;99.90;;;;;;5072961;28;20028;-57
2023/01/18 09:59:05;;;;;;;;;;;0.40;99.90;;;;;;5070773;28;20393;-57
2023/01/18 10:01:32;;;;;;;;;;;0.50;99.90;;;;;;5075286;28;19960;-58
2023/01/18 10:03:57;;;;;;;;;;;0.60;99.90;;;;;;5074463;28;20061;-57
2023/01/18 10:06:24;;;;;;;;;;;0.80;99.90;;;;;;5071985;28;20015;-58
2023/01/18 10:08:59;;;;;;;;;;;0.80;99.90;;;;;;5072829;28;20317;-57
2023/01/18 10:11:36;;;;;;;;;;;0.90;99.90;;;;;;5069931;28;20038;-57
2023/01/18 10:14:11;;;;;;;;;;;0.90;99.90;;;;;;5080851;28;19955;-57
2023/01/18 10:16:37;;;;;;;;;;;1.00;99.90;;;;;;5082585;28;20008;-57
2023/01/18 10:19:03;;;;;;;;;;;1.10;99.90;;;;;;5078344;28;19958;-56
2023/01/18 10:21:32;;;;;;;;;;;1.20;99.90;;;;;;5075924;28;19916;-55
2023/01/18 10:24:05;;;;;;;;;;;1.30;99.90;;;;;;5069650;28;19920;-57
2023/01/18 10:26:33;;;;;;;;;;;1.30;99.90;;;;;;5064041;28;19923;-57
2023/01/18 10:28:59;;;;;;;;;;;1.30;99.90;;;;;;5077943;28;19938;-57
2023/01/18 10:31:43;;;;;;;;;;;1.30;99.90;;;;;;5065307;28;19916;-57
2023/01/18 10:34:19;;;;;;;;;;;1.40;99.90;;;;;;5070244;28;19939;-55
2023/01/18 10:36:47;;;;;;;;;;;1.50;99.90;;;;;;5068488;28;19920;-57
2023/01/18 10:39:22;;;;;;;;;;;1.60;99.90;;;;;;5069651;28;19952;-58
2023/01/18 10:41:48;;;;;;;;;;;1.50;99.90;;;;;;5066371;28;19916;-58
2023/01/18 10:44:15;;;;;;;;;;;1.60;99.90;;;;;;5061328;28;20308;-58
2023/01/18 10:46:41;;;;;;;;;;;1.60;99.90;;;;;;5071421;28;19919;-59
2023/01/18 10:49:08;;;;;;;;;;;1.60;99.90;;;;;;5063100;28;19951;-57
2023/01/18 10:51:37;;;;;;;;;;;1.70;99.90;;;;;;5074039;28;19916;-57
2023/01/18 10:54:18;;;;;;;;;;;1.80;99.90;;;;;;5062300;28;20466;-55
2023/01/18 10:56:43;;;;;;;;;;;1.80;99.90;;;;;;5065401;28;19917;-58
2023/01/18 10:59:23;;;;;;;;;;;1.90;99.90;;;;;;5066317;28;20455;-58
2023/01/18 11:01:54;;;;;;;;;;;2.00;99.90;;;;;;5062520;28;19917;-55
2023/01/18 11:04:27;;;;;;;;;;;2.00;99.90;;;;;;5065183;28;19939;-57
2023/01/18 11:07:03;;;;;;;;;;;2.00;99.90;;;;;;5073188;28;20011;-55
2023/01/18 11:09:40;;;;;;;;;;;2.10;99.90;;;;;;5069873;28;19965;-56
2023/01/18 11:12:33;;;;;;;;;;;2.20;99.90;;;;;;5064833;28;20278;-56
2023/01/18 11:15:13;;;;;;;;;;;2.30;99.90;;;;;;5064504;28;19917;-58
2023/01/18 11:18:05;;;;;;;;;;;2.40;99.90;;;;;;5069371;28;19982;-57
2023/01/18 11:20:39;;;;;;;;;;;2.50;99.90;;;;;;5072008;28;20374;-58
2023/01/18 11:23:13;;;;;;;;;;;2.60;99.90;;;;;;5071831;28;20408;-57
2023/01/18 11:25:41;;;;;;;;;;;2.70;99.90;;;;;;5075833;28;19916;-58
2023/01/18 11:28:26;;;;;;;;;;;2.80;99.90;;;;;;5077430;28;19917;-56
2023/01/18 11:30:52;;;;;;;;;;;2.90;99.90;;;;;;5059434;28;19920;-57
2023/01/18 11:33:19;;;;;;;;;;;2.90;99.90;;;;;;5074247;28;19912;-57
2023/01/18 11:35:44;;;;;;;;;;;3.00;99.90;;;;;;5066210;28;19966;-56
2023/01/18 11:38:19;;;;;;;;;;;3.00;99.90;;;;;;5063131;28;19916;-57
2023/01/18 11:40:44;;;;;;;;;;;3.00;99.90;;;;;;5078051;28;20288;-55
2023/01/18 11:43:15;;;;;;;;;;;3.10;99.90;;;;;;5070380;28;20007;-56
2023/01/18 11:45:53;;;;;;;;;;;3.20;99.90;;;;;;5069315;28;19913;-56
2023/01/18 11:48:22;;;;;;;;;;;3.30;99.90;;;;;;5066315;28;19916;-57
2023/01/18 11:50:53;;;;;;;;;;;3.40;99.90;;;;;;5063577;28;20355;-57
2023/01/18 11:53:19;;;;;;;;;;;3.40;99.90;;;;;;5074908;28;20385;-56
2023/01/18 11:55:54;;;;;;;;;;;3.40;99.90;;;;;;5067647;28;19948;-57
2023/01/18 11:58:29;;;;;;;;;;;3.50;99.90;;;;;;5075233;28;20304;-57
2023/01/18 12:00:55;;;;;;;;;;;3.70;99.90;;;;;;5064303;28;19948;-56
2023/01/18 12:03:30;;;;;;;;;;;3.80;99.90;;;;;;5067944;28;19960;-57
2023/01/18 12:06:10;;;;;;;;;;;3.90;99.90;;;;;;5062536;28;20078;-59
2023/01/18 12:08:48;;;;;;;;;;;3.90;99.90;;;;;;5060804;28;19923;-59
2023/01/18 12:11:33;;;;;;;;;;;3.70;99.90;;;;;;5064998;28;19917;-57
2023/01/18 12:14:00;;;;;;;;;;;3.80;99.90;;;;;;5071249;28;19957;-57
2023/01/18 12:16:44;;;;;;;;;;;4.00;99.90;;;;;;5077547;28;19912;-56
2023/01/18 12:19:22;;;;;;;;;;;3.60;99.90;;;;;;5064340;28;19916;-59
2023/01/18 12:21:54;;;;;;;;;;;3.80;99.90;;;;;;5063410;28;19991;-59
2023/01/18 12:24:31;;;;;;;;;;;3.50;99.90;;;;;;5068538;28;19920;-58
2023/01/18 12:26:58;;;;;;;;;;;3.80;99.90;;;;;;5065330;28;19920;-60
2023/01/18 12:29:26;;;;;;;;;;;3.90;99.90;;;;;;5065960;28;20002;-59
2023/01/18 12:31:57;;;;;;;;;;;3.90;99.90;;;;;;5057946;28;19917;-60
2023/01/18 12:34:32;;;;;;;;;;;4.20;99.90;;;;;;5064053;28;19919;-60
2023/01/18 12:37:16;;;;;;;;;;;4.30;99.90;;;;;;5059179;28;20665;-59
2023/01/18 12:39:52;;;;;;;;;;;4.40;99.90;;;;;;5059140;28;20430;-58
2023/01/18 12:42:36;;;;;;;;;;;4.30;99.90;;;;;;5059185;28;20378;-59
2023/01/18 12:45:37;;;;;;;;;;;4.60;99.90;;;;;;5068487;28;19966;-60
2023/01/18 12:48:08;;;;;;;;;;;4.90;99.90;;;;;;4980512;28;19922;-60
2023/01/18 12:50:38;;;;;;;;;;;4.50;99.90;;;;;;5047388;28;19950;-61
2023/01/18 12:53:11;;;;;;;;;;;4.80;99.90;;;;;;5067646;28;19916;-60
2023/01/18 12:55:38;;;;;;;;;;;5.20;99.90;;;;;;5059394;28;19919;-60
2023/01/18 12:58:04;;;;;;;;;;;5.50;99.90;;;;;;5066921;28;19920;-61
2023/01/18 13:00:38;;;;;;;;;;;5.60;99.90;;;;;;5065976;28;20668;-60
2023/01/18 13:03:08;;;;;;;;;;;5.80;99.90;;;;;;5066860;28;19912;-60
2023/01/18 13:05:42;;;;;;;;;;;5.80;99.90;;;;;;5063924;28;19926;-61
2023/01/18 13:08:13;;;;;;;;;;;5.50;99.90;;;;;;5055889;28;19927;-60
2023/01/18 13:10:39;;;;;;;;;;;5.50;99.90;;;;;;5063400;28;20378;-60
2023/01/18 13:13:05;;;;;;;;;;;5.50;99.90;;;;;;5064999;28;19928;-59
2023/01/18 13:15:42;;;;;;;;;;;5.20;99.90;;;;;;5060527;28;20631;-59
2023/01/18 13:18:14;;;;;;;;;;;5.40;99.90;;;;;;5063728;28;19963;-59
2023/01/18 13:20:48;;;;;;;;;;;5.60;99.90;;;;;;5059479;28;19917;-60
2023/01/18 13:23:26;;;;;;;;;;;5.70;99.90;;;;;;5067230;28;20313;-59
2023/01/18 13:25:59;;;;;;;;;;;5.90;99.90;;;;;;5062403;28;20374;-58
2023/01/18 13:28:25;;;;;;;;;;;6.00;99.90;;;;;;5052721;28;19923;-60
2023/01/18 13:30:59;;;;;;;;;;;6.20;99.90;;;;;;5067547;28;20333;-61
2023/01/18 13:33:29;;;;;;;;;;;6.20;99.90;;;;;;5059871;28;20293;-60
2023/01/18 13:36:09;;;;;;;;;;;6.30;99.90;;;;;;5067949;28;19917;-60
2023/01/18 13:38:38;;;;;;;;;;;6.30;99.90;;;;;;5065747;28;19913;-61
2023/01/18 13:41:09;;;;;;;;;;;6.20;99.90;;;;;;5081280;28;19909;-61
2023/01/18 13:43:34;;;;;;;;;;;6.30;99.90;;;;;;5073917;28;19978;-60
2023/01/18 13:46:03;;;;;;;;;;;6.10;99.90;;;;;;5073991;28;19970;-62
2023/01/18 13:48:46;;;;;;;;;;;6.00;99.90;;;;;;5062594;28;19969;-61
2023/01/18 13:51:30;;;;;;;;;;;5.90;99.90;;;;;;5068408;28;20336;-59
2023/01/18 13:53:56;;;;;;;;;;;5.90;99.90;;;;;;5063103;28;19913;-58
2023/01/18 13:56:26;;;;;;;;;;;5.80;99.90;;;;;;5062648;28;19913;-61
2023/01/18 13:58:53;;;;;;;;;;;5.60;99.90;;;;;;5065741;28;20007;-61
2023/01/18 14:01:21;;;;;;;;;;;5.50;99.90;;;;;;5063244;28;19913;-60
2023/01/18 14:03:48;;;;;;;;;;;5.60;99.90;;;;;;5077291;28;19983;-59
2023/01/18 14:06:25;;;;;;;;;;;5.40;99.90;;;;;;5068978;28;20118;-59
2023/01/18 14:08:53;;;;;;;;;;;5.70;99.90;;;;;;5070302;28;19912;-60
2023/01/18 14:11:21;;;;;;;;;;;5.70;99.90;;;;;;5068634;28;19913;-60
2023/01/18 14:13:47;;;;;;;;;;;5.70;99.90;;;;;;5075209;28;19986;-60
2023/01/18 14:16:17;;;;;;;;;;;5.50;99.90;;;;;;5070289;28;20011;-59
2023/01/18 14:18:50;;;;;;;;;;;5.40;99.90;;;;;;5064266;28;19913;-60
2023/01/18 14:21:19;;;;;;;;;;;5.20;99.90;;;;;;5071483;28;20004;-60
2023/01/18 14:23:57;;;;;;;;;;;5.30;99.90;;;;;;5069836;28;20405;-60
2023/01/18 14:26:26;;;;;;;;;;;5.30;99.90;;;;;;5070281;28;20029;-60
2023/01/18 14:28:56;;;;;;;;;;;5.30;99.90;;;;;;5063441;28;19916;-61
2023/01/18 14:31:32;;;;;;;;;;;5.30;99.90;;;;;;5076071;28;20542;-59
2023/01/18 14:34:17;;;;;;;;;;;5.20;99.90;;;;;;5067664;28;19970;-58
2023/01/18 14:36:42;;;;;;;;;;;5.30;99.90;;;;;;5064329;28;20007;-59
2023/01/18 14:39:15;;;;;;;;;;;5.30;99.90;;;;;;5070087;28;20044;-58
2023/01/18 14:41:42;;;;;;;;;;;5.20;99.90;;;;;;5066676;28;19919;-59
2023/01/18 14:44:15;;;;;;;;;;;5.20;99.90;;;;;;5065084;28;20262;-59
2023/01/18 14:46:41;;;;;;;;;;;5.20;99.90;;;;;;5058313;28;19921;-58
2023/01/18 14:49:11;;;;;;;;;;;5.10;99.90;;;;;;5068380;28;19920;-59
2023/01/18 14:51:37;;;;;;;;;;;5.00;99.90;;;;;;5060275;28;20061;-60
2023/01/18 14:54:03;;;;;;;;;;;5.00;99.90;;;;;;5080265;22;19925;-54
2023/01/18 14:56:32;;;;;;;;;;;5.00;99.90;;;;;;5062608;28;19921;-56
2023/01/18 14:58:58;;;;;;;;;;;4.90;99.90;;;;;;5059483;28;20386;-56
2023/01/18 15:01:27;;;;;;;;;;;4.90;99.90;;;;;;5063043;28;19948;-58
2023/01/18 15:03:53;;;;;;;;;;;4.80;99.90;;;;;;5061384;28;20146;-57
2023/01/18 15:06:23;;;;;;;;;;;4.70;99.90;;;;;;5061467;28;19913;-56
2023/01/18 15:08:48;;;;;;;;;;;4.60;99.90;;;;;;5064721;28;19981;-57